KTVF/TVF METAR and TAF weather

Enter ICAO airport designator
Station Type Date Time Source
KTVF METAR 2019/04/23 03:56 UTC NOAA

KTVF 230356Z AUTO 34007KT 10SM CLR 09/03 A3014 RMK AO2 SLP212 T00890028


Station Type Date Time Source
KTVF Decoded METAR 2019/04/23 03:56 UTC NOAA

Thief River Falls, Thief River Falls Regional Airport, MN, United States (KTVF) 48-04N 096-11W
Apr 22, 2019 - 11:56 PM EDT / 2019.04.23 0356 UTC
Wind: from the NNW (340 degrees) at 8 MPH (7 KT):0
Visibility: 10 mile(s):0
Sky conditions: clear
Temperature: 48.0 F (8.9 C)
Dew Point: 37.0 F (2.8 C)
Relative Humidity: 65%
Pressure (altimeter): 30.14 in. Hg (1020 hPa)
ob: KTVF 230356Z AUTO 34007KT 10SM CLR 09/03 A3014 RMK AO2 SLP212 T00890028
cycle: 4

Station Type Date Time Source
KTVF TAF 2019/04/22 18:34 UTC NOAA

TAF KTVF 221732Z 2218/2318 31007KT P6SM FEW060
FM222030 34006KT P6SM FEW060
FM230900 VRB03KT P6SM SKC
FM231700 21007KT P6SM FEW200

Example: see airport list